sensor_id;sensor_type;location;lat;lon;timestamp;pressure;altitude;pressure_sealevel;temperature;humidity
65190;BME280;51777;53.570;9.984;2022-10-16T00:00:37;100686.72;;;14.42;100.00
65190;BME280;51777;53.570;9.984;2022-10-16T00:03:03;100695.50;;;14.40;100.00
65190;BME280;51777;53.570;9.984;2022-10-16T00:05:29;100696.31;;;14.41;100.00
65190;BME280;51777;53.570;9.984;2022-10-16T00:07:54;100700.88;;;14.39;100.00
65190;BME280;51777;53.570;9.984;2022-10-16T00:10:20;100697.63;;;14.37;100.00
65190;BME280;51777;53.570;9.984;2022-10-16T00:12:45;100699.59;;;14.35;100.00
65190;BME280;51777;53.570;9.984;2022-10-16T00:15:11;100697.97;;;14.34;100.00
65190;BME280;51777;53.570;9.984;2022-10-16T00:17:37;100692.59;;;14.35;100.00
65190;BME280;51777;53.570;9.984;2022-10-16T00:20:02;100697.97;;;14.34;100.00
65190;BME280;51777;53.570;9.984;2022-10-16T00:22:28;100698.78;;;14.34;100.00
65190;BME280;51777;53.570;9.984;2022-10-16T00:24:53;100694.38;;;14.35;100.00
65190;BME280;51777;53.570;9.984;2022-10-16T00:27:19;100703.81;;;14.36;100.00
65190;BME280;51777;53.570;9.984;2022-10-16T00:29:44;100696.19;;;14.34;100.00
65190;BME280;51777;53.570;9.984;2022-10-16T00:32:09;100701.03;;;14.37;100.00
65190;BME280;51777;53.570;9.984;2022-10-16T00:34:35;100701.84;;;14.38;100.00
65190;BME280;51777;53.570;9.984;2022-10-16T00:37:00;100700.03;;;14.38;100.00
65190;BME280;51777;53.570;9.984;2022-10-16T00:39:26;100711.13;;;14.40;100.00
65190;BME280;51777;53.570;9.984;2022-10-16T00:41:51;100712.25;;;14.38;100.00
65190;BME280;51777;53.570;9.984;2022-10-16T00:47:24;100718.09;;;14.40;100.00
65190;BME280;51777;53.570;9.984;2022-10-16T00:49:53;100725.56;;;14.43;100.00
65190;BME280;51777;53.570;9.984;2022-10-16T00:52:20;100717.63;;;14.45;100.00
65190;BME280;51777;53.570;9.984;2022-10-16T00:54:46;100718.25;;;14.47;100.00
65190;BME280;51777;53.570;9.984;2022-10-16T00:57:14;100715.47;;;14.48;100.00
65190;BME280;51777;53.570;9.984;2022-10-16T00:59:41;100727.03;;;14.46;100.00
65190;BME280;51777;53.570;9.984;2022-10-16T01:02:11;100719.06;;;14.47;100.00
65190;BME280;51777;53.570;9.984;2022-10-16T01:04:42;100719.22;;;14.46;100.00
65190;BME280;51777;53.570;9.984;2022-10-16T01:12:32;100741.97;;;14.44;100.00
65190;BME280;51777;53.570;9.984;2022-10-16T01:20:11;100736.19;;;14.33;100.00
65190;BME280;51777;53.570;9.984;2022-10-16T01:22:47;100746.75;;;14.32;100.00
65190;BME280;51777;53.570;9.984;2022-10-16T01:25:23;100746.13;;;14.30;100.00
65190;BME280;51777;53.570;9.984;2022-10-16T01:27:51;100750.19;;;14.24;100.00
65190;BME280;51777;53.570;9.984;2022-10-16T01:30:21;100753.94;;;14.22;100.00
65190;BME280;51777;53.570;9.984;2022-10-16T01:35:39;100747.81;;;14.15;100.00
65190;BME280;51777;53.570;9.984;2022-10-16T01:40:46;100743.25;;;14.08;100.00
65190;BME280;51777;53.570;9.984;2022-10-16T01:43:18;100742.63;;;14.06;100.00
65190;BME280;51777;53.570;9.984;2022-10-16T01:45:45;100742.31;;;14.01;100.00
65190;BME280;51777;53.570;9.984;2022-10-16T01:48:17;100744.91;;;14.01;100.00
65190;BME280;51777;53.570;9.984;2022-10-16T01:50:44;100749.81;;;13.96;100.00
65190;BME280;51777;53.570;9.984;2022-10-16T01:53:16;100739.56;;;13.95;100.00
65190;BME280;51777;53.570;9.984;2022-10-16T01:55:44;100749.50;;;13.91;100.00
65190;BME280;51777;53.570;9.984;2022-10-16T01:58:12;100747.22;;;13.88;100.00
65190;BME280;51777;53.570;9.984;2022-10-16T02:00:42;100739.59;;;13.87;100.00
65190;BME280;51777;53.570;9.984;2022-10-16T02:03:11;100748.38;;;13.86;100.00
65190;BME280;51777;53.570;9.984;2022-10-16T02:05:42;100742.34;;;13.85;100.00
65190;BME280;51777;53.570;9.984;2022-10-16T02:08:10;100754.38;;;13.86;100.00
65190;BME280;51777;53.570;9.984;2022-10-16T02:10:37;100746.59;;;13.86;100.00
65190;BME280;51777;53.570;9.984;2022-10-16T02:13:10;100741.38;;;13.86;100.00
65190;BME280;51777;53.570;9.984;2022-10-16T02:15:38;100750.50;;;13.82;100.00
65190;BME280;51777;53.570;9.984;2022-10-16T02:18:05;100746.44;;;13.79;100.00
65190;BME280;51777;53.570;9.984;2022-10-16T02:20:36;100748.41;;;13.77;100.00
65190;BME280;51777;53.570;9.984;2022-10-16T02:23:06;100752.13;;;13.75;100.00
65190;BME280;51777;53.570;9.984;2022-10-16T02:25:40;100750.66;;;13.72;100.00
65190;BME280;51777;53.570;9.984;2022-10-16T02:28:24;100760.25;;;13.72;100.00
65190;BME280;51777;53.570;9.984;2022-10-16T02:31:00;100762.38;;;13.68;100.00
65190;BME280;51777;53.570;9.984;2022-10-16T02:33:28;100759.16;;;13.66;100.00
65190;BME280;51777;53.570;9.984;2022-10-16T02:35:56;100758.66;;;13.63;100.00
65190;BME280;51777;53.570;9.984;2022-10-16T02:38:23;100753.78;;;13.60;100.00
65190;BME280;51777;53.570;9.984;2022-10-16T02:40:49;100756.38;;;13.60;100.00
65190;BME280;51777;53.570;9.984;2022-10-16T02:43:15;100747.13;;;13.57;100.00
65190;BME280;51777;53.570;9.984;2022-10-16T02:45:41;100751.53;;;13.57;100.00
65190;BME280;51777;53.570;9.984;2022-10-16T02:48:07;100752.03;;;13.52;100.00
65190;BME280;51777;53.570;9.984;2022-10-16T02:50:32;100750.72;;;13.48;100.00
65190;BME280;51777;53.570;9.984;2022-10-16T02:52:57;100748.28;;;13.46;100.00
65190;BME280;51777;53.570;9.984;2022-10-16T02:55:23;100760.63;;;13.44;100.00
65190;BME280;51777;53.570;9.984;2022-10-16T02:57:48;100760.16;;;13.41;100.00
65190;BME280;51777;53.570;9.984;2022-10-16T03:00:16;100753.47;;;13.38;100.00
65190;BME280;51777;53.570;9.984;2022-10-16T03:02:42;100758.66;;;13.38;100.00
65190;BME280;51777;53.570;9.984;2022-10-16T03:05:09;100751.19;;;13.35;100.00
65190;BME280;51777;53.570;9.984;2022-10-16T03:07:35;100751.19;;;13.35;100.00
65190;BME280;51777;53.570;9.984;2022-10-16T03:10:00;100753.31;;;13.32;100.00
65190;BME280;51777;53.570;9.984;2022-10-16T03:12:27;100746.50;;;13.31;100.00
65190;BME280;51777;53.570;9.984;2022-10-16T03:14:52;100738.88;;;13.29;100.00
65190;BME280;51777;53.570;9.984;2022-10-16T03:17:18;100741.66;;;13.28;100.00
65190;BME280;51777;53.570;9.984;2022-10-16T03:19:43;100737.56;;;13.25;100.00
65190;BME280;51777;53.570;9.984;2022-10-16T03:22:09;100748.94;;;13.24;100.00
65190;BME280;51777;53.570;9.984;2022-10-16T03:24:34;100747.31;;;13.23;100.00
65190;BME280;51777;53.570;9.984;2022-10-16T03:26:59;100748.94;;;13.24;100.00
65190;BME280;51777;53.570;9.984;2022-10-16T03:29:25;100749.09;;;13.22;100.00
65190;BME280;51777;53.570;9.984;2022-10-16T03:31:51;100750.06;;;13.21;100.00
65190;BME280;51777;53.570;9.984;2022-10-16T03:34:16;100756.41;;;13.19;100.00
65190;BME280;51777;53.570;9.984;2022-10-16T03:36:42;100759.94;;;13.18;100.00
65190;BME280;51777;53.570;9.984;2022-10-16T03:39:07;100752.31;;;13.16;100.00
65190;BME280;51777;53.570;9.984;2022-10-16T03:41:32;100753.31;;;13.15;100.00
65190;BME280;51777;53.570;9.984;2022-10-16T03:43:58;100752.31;;;13.16;100.00
65190;BME280;51777;53.570;9.984;2022-10-16T03:46:23;100758.31;;;13.17;100.00
65190;BME280;51777;53.570;9.984;2022-10-16T03:48:48;100763.53;;;13.17;100.00
65190;BME280;51777;53.570;9.984;2022-10-16T03:51:14;100760.94;;;13.17;100.00
65190;BME280;51777;53.570;9.984;2022-10-16T03:53:39;100763.53;;;13.17;100.00
65190;BME280;51777;53.570;9.984;2022-10-16T03:56:05;100761.59;;;13.19;100.00
65190;BME280;51777;53.570;9.984;2022-10-16T03:58:30;100759.94;;;13.18;100.00
65190;BME280;51777;53.570;9.984;2022-10-16T04:00:56;100759.94;;;13.18;100.00
65190;BME280;51777;53.570;9.984;2022-10-16T04:03:21;100755.72;;;13.17;100.00
65190;BME280;51777;53.570;9.984;2022-10-16T04:05:48;100762.72;;;13.16;100.00
65190;BME280;51777;53.570;9.984;2022-10-16T04:08:13;100763.81;;;13.14;100.00
65190;BME280;51777;53.570;9.984;2022-10-16T04:10:39;100776.16;;;13.12;100.00
65190;BME280;51777;53.570;9.984;2022-10-16T04:13:04;100782.97;;;13.13;100.00
65190;BME280;51777;53.570;9.984;2022-10-16T04:15:29;100792.53;;;13.12;100.00
65190;BME280;51777;53.570;9.984;2022-10-16T04:17:55;100791.72;;;13.12;100.00
65190;BME280;51777;53.570;9.984;2022-10-16T04:20:20;100798.53;;;13.13;100.00
65190;BME280;51777;53.570;9.984;2022-10-16T04:22:46;100789.94;;;13.12;100.00
65190;BME280;51777;53.570;9.984;2022-10-16T04:25:11;100799.53;;;13.12;100.00
65190;BME280;51777;53.570;9.984;2022-10-16T04:27:37;100798.53;;;13.13;100.00
65190;BME280;51777;53.570;9.984;2022-10-16T04:30:04;100798.53;;;13.13;100.00
65190;BME280;51777;53.570;9.984;2022-10-16T04:32:29;100798.72;;;13.11;100.00
65190;BME280;51777;53.570;9.984;2022-10-16T04:34:54;100800.50;;;13.11;100.00
65190;BME280;51777;53.570;9.984;2022-10-16T04:37:26;100793.69;;;13.10;100.00
65190;BME280;51777;53.570;9.984;2022-10-16T04:39:54;100807.47;;;13.10;100.00
65190;BME280;51777;53.570;9.984;2022-10-16T04:42:20;100818.03;;;13.09;100.00
65190;BME280;51777;53.570;9.984;2022-10-16T04:44:46;100819.00;;;13.08;100.00
65190;BME280;51777;53.570;9.984;2022-10-16T04:47:11;100816.41;;;13.08;100.00
65190;BME280;51777;53.570;9.984;2022-10-16T04:49:37;100819.97;;;13.07;100.00
65190;BME280;51777;53.570;9.984;2022-10-16T04:52:03;100821.91;;;13.05;100.00
65190;BME280;51777;53.570;9.984;2022-10-16T04:54:28;100821.09;;;13.04;100.00
65190;BME280;51777;53.570;9.984;2022-10-16T04:56:53;100813.47;;;13.03;100.00
65190;BME280;51777;53.570;9.984;2022-10-16T04:59:20;100810.06;;;13.02;100.00
65190;BME280;51777;53.570;9.984;2022-10-16T05:01:46;100808.28;;;13.03;100.00
65190;BME280;51777;53.570;9.984;2022-10-16T05:04:11;100819.31;;;13.05;100.00
65190;BME280;51777;53.570;9.984;2022-10-16T05:06:37;100822.06;;;13.03;100.00
65190;BME280;51777;53.570;9.984;2022-10-16T05:09:04;100822.88;;;13.04;100.00
65190;BME280;51777;53.570;9.984;2022-10-16T05:11:30;100821.91;;;13.05;100.00
65190;BME280;51777;53.570;9.984;2022-10-16T05:13:56;100835.06;;;13.03;100.00
65190;BME280;51777;53.570;9.984;2022-10-16T05:16:21;100832.47;;;13.03;100.00
65190;BME280;51777;53.570;9.984;2022-10-16T05:18:47;100838.47;;;13.04;100.00
65190;BME280;51777;53.570;9.984;2022-10-16T05:21:12;100843.66;;;13.04;100.00
65190;BME280;51777;53.570;9.984;2022-10-16T05:23:38;100842.69;;;13.05;100.00
65190;BME280;51777;53.570;9.984;2022-10-16T05:26:03;100849.81;;;13.03;100.00
65190;BME280;51777;53.570;9.984;2022-10-16T05:28:29;100845.56;;;13.02;100.00
65190;BME280;51777;53.570;9.984;2022-10-16T05:30:55;100846.53;;;13.01;100.00
65190;BME280;51777;53.570;9.984;2022-10-16T05:33:22;100844.75;;;13.01;100.00
65190;BME280;51777;53.570;9.984;2022-10-16T05:35:48;100845.44;;;13.03;100.00
65190;BME280;51777;53.570;9.984;2022-10-16T05:38:15;100844.31;;;13.06;100.00
65190;BME280;51777;53.570;9.984;2022-10-16T05:40:40;100856.31;;;13.07;100.00
65190;BME280;51777;53.570;9.984;2022-10-16T05:43:05;100848.34;;;13.08;100.00
65190;BME280;51777;53.570;9.984;2022-10-16T05:45:31;100840.09;;;13.13;100.00
65190;BME280;51777;53.570;9.984;2022-10-16T05:47:56;100843.03;;;13.18;100.00
65190;BME280;51777;53.570;9.984;2022-10-16T05:50:21;100838.34;;;13.21;100.00
65190;BME280;51777;53.570;9.984;2022-10-16T05:52:47;100850.03;;;13.26;100.00
65190;BME280;51777;53.570;9.984;2022-10-16T05:55:12;100849.75;;;13.29;100.00
65190;BME280;51777;53.570;9.984;2022-10-16T05:57:38;100853.47;;;13.34;100.00
65190;BME280;51777;53.570;9.984;2022-10-16T06:00:04;100856.72;;;13.36;100.00
65190;BME280;51777;53.570;9.984;2022-10-16T06:02:30;100856.25;;;13.41;100.00
65190;BME280;51777;53.570;9.984;2022-10-16T06:04:55;100857.53;;;13.45;100.00
65190;BME280;51777;53.570;9.984;2022-10-16T06:07:21;100858.03;;;13.48;100.00
65190;BME280;51777;53.570;9.984;2022-10-16T06:09:51;100851.56;;;13.52;100.00
65190;BME280;51777;53.570;9.984;2022-10-16T06:12:17;100855.78;;;13.54;100.00
65190;BME280;51777;53.570;9.984;2022-10-16T06:14:42;100861.59;;;13.56;100.00
65190;BME280;51777;53.570;9.984;2022-10-16T06:17:08;100863.88;;;13.50;100.00
65190;BME280;51777;53.570;9.984;2022-10-16T06:19:33;100865.16;;;13.46;100.00
65190;BME280;51777;53.570;9.984;2022-10-16T06:21:59;100869.56;;;13.46;100.00
65190;BME280;51777;53.570;9.984;2022-10-16T06:24:25;100868.09;;;13.43;100.00
65190;BME280;51777;53.570;9.984;2022-10-16T06:26:51;100865.66;;;13.42;100.00
65190;BME280;51777;53.570;9.984;2022-10-16T06:29:17;100872.81;;;13.40;100.00
65190;BME280;51777;53.570;9.984;2022-10-16T06:31:42;100873.44;;;13.42;100.00
65190;BME280;51777;53.570;9.984;2022-10-16T06:34:09;100871.66;;;13.42;100.00
65190;BME280;51777;53.570;9.984;2022-10-16T06:36:36;100884.50;;;13.44;100.00
65190;BME280;51777;53.570;9.984;2022-10-16T06:39:04;100885.94;;;13.46;100.00
65190;BME280;51777;53.570;9.984;2022-10-16T06:41:30;100877.53;;;13.52;100.00
65190;BME280;51777;53.570;9.984;2022-10-16T06:43:56;100891.66;;;13.58;100.00
65190;BME280;51777;53.570;9.984;2022-10-16T06:46:23;100885.94;;;13.63;100.00
65190;BME280;51777;53.570;9.984;2022-10-16T06:48:49;100890.84;;;13.66;100.00
65190;BME280;51777;53.570;9.984;2022-10-16T06:51:23;100901.06;;;13.67;100.00
65190;BME280;51777;53.570;9.984;2022-10-16T06:53:53;100899.94;;;13.70;100.00
65190;BME280;51777;53.570;9.984;2022-10-16T06:56:26;100909.66;;;13.76;100.00
65190;BME280;51777;53.570;9.984;2022-10-16T06:58:53;100917.31;;;13.86;100.00
65190;BME280;51777;53.570;9.984;2022-10-16T07:01:21;100912.28;;;14.00;100.00
65190;BME280;51777;53.570;9.984;2022-10-16T07:03:47;100924.28;;;14.18;100.00
65190;BME280;51777;53.570;9.984;2022-10-16T07:06:16;100932.72;;;14.36;100.00
65190;BME280;51777;53.570;9.984;2022-10-16T07:08:44;100926.38;;;14.55;100.00
65190;BME280;51777;53.570;9.984;2022-10-16T07:11:18;100938.22;;;14.65;100.00
65190;BME280;51777;53.570;9.984;2022-10-16T07:13:44;100937.34;;;14.81;100.00
65190;BME280;51777;53.570;9.984;2022-10-16T07:18:37;100940.75;;;14.90;100.00
65190;BME280;51777;53.570;9.984;2022-10-16T07:21:09;100941.22;;;14.93;100.00
65190;BME280;51777;53.570;9.984;2022-10-16T07:23:35;100946.88;;;14.97;100.00
65190;BME280;51777;53.570;9.984;2022-10-16T07:26:01;100947.88;;;14.88;100.00
65190;BME280;51777;53.570;9.984;2022-10-16T07:28:27;100951.19;;;14.82;100.00
65190;BME280;51777;53.570;9.984;2022-10-16T07:30:53;100955.91;;;14.78;100.00
65190;BME280;51777;53.570;9.984;2022-10-16T07:33:18;100955.59;;;14.73;100.00
65190;BME280;51777;53.570;9.984;2022-10-16T07:35:51;100955.09;;;14.78;100.00
65190;BME280;51777;53.570;9.984;2022-10-16T07:38:17;100963.72;;;14.78;100.00
65190;BME280;51777;53.570;9.984;2022-10-16T07:40:43;100961.22;;;14.93;100.00
65190;BME280;51777;53.570;9.984;2022-10-16T07:43:08;100966.25;;;15.03;100.00
65190;BME280;51777;53.570;9.984;2022-10-16T07:45:33;100977.06;;;15.22;100.00
65190;BME280;51777;53.570;9.984;2022-10-16T07:47:59;100979.72;;;15.45;100.00
65190;BME280;51777;53.570;9.984;2022-10-16T07:50:24;100978.94;;;15.76;100.00
65190;BME280;51777;53.570;9.984;2022-10-16T07:52:49;100982.03;;;15.94;100.00
65190;BME280;51777;53.570;9.984;2022-10-16T07:55:15;100983.31;;;15.98;100.00
65190;BME280;51777;53.570;9.984;2022-10-16T07:57:41;100983.38;;;15.90;100.00
65190;BME280;51777;53.570;9.984;2022-10-16T08:00:07;100994.09;;;15.72;100.00
65190;BME280;51777;53.570;9.984;2022-10-16T08:02:32;100991.78;;;15.77;100.00
65190;BME280;51777;53.570;9.984;2022-10-16T08:04:58;101001.84;;;16.26;100.00
65190;BME280;51777;53.570;9.984;2022-10-16T08:07:23;101006.59;;;16.23;100.00
65190;BME280;51777;53.570;9.984;2022-10-16T08:09:49;101003.72;;;15.95;100.00
65190;BME280;51777;53.570;9.984;2022-10-16T08:12:16;101006.47;;;15.70;100.00
65190;BME280;51777;53.570;9.984;2022-10-16T08:14:45;101002.16;;;15.63;100.00
65190;BME280;51777;53.570;9.984;2022-10-16T08:17:13;101002.97;;;15.55;100.00
65190;BME280;51777;53.570;9.984;2022-10-16T08:19:39;101013.31;;;15.71;100.00
65190;BME280;51777;53.570;9.984;2022-10-16T08:22:04;101016.38;;;15.75;100.00
65190;BME280;51777;53.570;9.984;2022-10-16T08:24:29;101019.63;;;17.13;100.00
65190;BME280;51777;53.570;9.984;2022-10-16T08:26:56;101028.06;;;17.80;97.87
65190;BME280;51777;53.570;9.984;2022-10-16T08:29:21;101024.84;;;17.78;95.56
65190;BME280;51777;53.570;9.984;2022-10-16T08:31:47;101023.34;;;17.54;97.58
65190;BME280;51777;53.570;9.984;2022-10-16T08:34:12;101024.78;;;18.36;92.79
65190;BME280;51777;53.570;9.984;2022-10-16T08:36:37;101029.00;;;17.94;94.18
65190;BME280;51777;53.570;9.984;2022-10-16T08:39:03;101025.63;;;17.79;94.20
65190;BME280;51777;53.570;9.984;2022-10-16T08:44:10;101025.66;;;17.13;100.00
65190;BME280;51777;53.570;9.984;2022-10-16T08:49:30;101028.44;;;16.82;100.00
65190;BME280;51777;53.570;9.984;2022-10-16T08:51:56;101027.06;;;16.71;100.00
65190;BME280;51777;53.570;9.984;2022-10-16T08:56:50;101036.06;;;16.69;100.00
65190;BME280;51777;53.570;9.984;2022-10-16T08:59:16;101030.16;;;16.37;100.00
65190;BME280;51777;53.570;9.984;2022-10-16T09:01:49;101040.03;;;16.42;100.00
65190;BME280;51777;53.570;9.984;2022-10-16T09:06:57;101049.00;;;17.00;100.00
65190;BME280;51777;53.570;9.984;2022-10-16T09:09:35;101056.19;;;17.13;99.76
65190;BME280;51777;53.570;9.984;2022-10-16T09:15:00;101059.19;;;17.24;97.50
65190;BME280;51777;53.570;9.984;2022-10-16T09:22:45;101068.53;;;17.84;95.66
65190;BME280;51777;53.570;9.984;2022-10-16T09:25:16;101073.75;;;18.42;93.36
65190;BME280;51777;53.570;9.984;2022-10-16T09:27:44;101077.81;;;18.72;89.06
65190;BME280;51777;53.570;9.984;2022-10-16T09:30:20;101081.72;;;18.34;88.96
65190;BME280;51777;53.570;9.984;2022-10-16T09:32:52;101093.06;;;18.41;87.74
65190;BME280;51777;53.570;9.984;2022-10-16T09:35:24;101081.66;;;18.70;86.86
65190;BME280;51777;53.570;9.984;2022-10-16T09:37:54;101085.25;;;19.31;83.69
65190;BME280;51777;53.570;9.984;2022-10-16T09:40:30;101091.16;;;19.40;82.63
65190;BME280;51777;53.570;9.984;2022-10-16T09:43:02;101077.78;;;19.70;79.66
65190;BME280;51777;53.570;9.984;2022-10-16T09:45:31;101078.31;;;19.17;82.86
65190;BME280;51777;53.570;9.984;2022-10-16T09:47:56;101078.16;;;18.41;85.46
65190;BME280;51777;53.570;9.984;2022-10-16T09:50:23;101086.56;;;18.58;87.29
65190;BME280;51777;53.570;9.984;2022-10-16T09:52:49;101088.56;;;18.35;86.06
65190;BME280;51777;53.570;9.984;2022-10-16T09:55:17;101089.59;;;18.12;87.99
65190;BME280;51777;53.570;9.984;2022-10-16T09:57:53;101097.00;;;19.07;84.45
65190;BME280;51777;53.570;9.984;2022-10-16T10:00:19;101110.38;;;20.08;78.68
65190;BME280;51777;53.570;9.984;2022-10-16T10:02:45;101127.22;;;21.06;73.80
65190;BME280;51777;53.570;9.984;2022-10-16T10:05:26;101134.75;;;21.74;70.05
65190;BME280;51777;53.570;9.984;2022-10-16T10:08:02;101140.38;;;22.54;66.98
65190;BME280;51777;53.570;9.984;2022-10-16T10:10:33;101144.16;;;23.69;58.14
65190;BME280;51777;53.570;9.984;2022-10-16T10:13:01;101144.19;;;23.99;55.66
65190;BME280;51777;53.570;9.984;2022-10-16T10:15:33;101138.09;;;24.41;52.81
65190;BME280;51777;53.570;9.984;2022-10-16T10:17:58;101150.78;;;23.17;55.75
65190;BME280;51777;53.570;9.984;2022-10-16T10:20:27;101154.53;;;23.09;56.28
65190;BME280;51777;53.570;9.984;2022-10-16T10:22:53;101154.09;;;22.63;56.60
65190;BME280;51777;53.570;9.984;2022-10-16T10:25:30;101143.53;;;23.12;55.41
65190;BME280;51777;53.570;9.984;2022-10-16T10:31:03;101152.75;;;24.25;52.32
65190;BME280;51777;53.570;9.984;2022-10-16T10:36:16;101154.44;;;25.55;49.66
65190;BME280;51777;53.570;9.984;2022-10-16T10:39:14;101154.09;;;25.51;47.20
65190;BME280;51777;53.570;9.984;2022-10-16T10:52:38;101137.59;;;21.66;57.30
65190;BME280;51777;53.570;9.984;2022-10-16T10:58:10;101152.81;;;20.12;59.53
65190;BME280;51777;53.570;9.984;2022-10-16T11:06:12;101136.09;;;19.30;63.06
65190;BME280;51777;53.570;9.984;2022-10-16T11:08:56;101133.00;;;19.55;63.40
65190;BME280;51777;53.570;9.984;2022-10-16T11:11:38;101151.50;;;19.47;62.84
65190;BME280;51777;53.570;9.984;2022-10-16T11:14:20;101138.47;;;19.25;62.29
65190;BME280;51777;53.570;9.984;2022-10-16T11:16:54;101150.78;;;18.97;63.95
65190;BME280;51777;53.570;9.984;2022-10-16T11:25:04;101159.94;;;19.35;63.00
65190;BME280;51777;53.570;9.984;2022-10-16T11:30:12;101163.84;;;19.18;60.97
65190;BME280;51777;53.570;9.984;2022-10-16T11:32:56;101163.03;;;18.90;62.46
65190;BME280;51777;53.570;9.984;2022-10-16T11:35:39;101173.63;;;19.65;61.46
65190;BME280;51777;53.570;9.984;2022-10-16T11:38:15;101177.56;;;20.44;57.06
65190;BME280;51777;53.570;9.984;2022-10-16T11:40:45;101182.75;;;20.31;58.50
65190;BME280;51777;53.570;9.984;2022-10-16T11:45:42;101196.69;;;21.77;55.56
65190;BME280;51777;53.570;9.984;2022-10-16T11:53:58;101200.72;;;20.34;59.26
65190;BME280;51777;53.570;9.984;2022-10-16T11:56:26;101201.50;;;20.21;58.71
65190;BME280;51777;53.570;9.984;2022-10-16T11:58:57;101206.94;;;20.13;58.88
65190;BME280;51777;53.570;9.984;2022-10-16T12:01:42;101208.50;;;19.31;60.83
65190;BME280;51777;53.570;9.984;2022-10-16T12:04:14;101204.44;;;19.01;62.20
65190;BME280;51777;53.570;9.984;2022-10-16T12:06:52;101219.56;;;19.27;61.60
65190;BME280;51777;53.570;9.984;2022-10-16T12:09:28;101218.91;;;18.97;61.56
65190;BME280;51777;53.570;9.984;2022-10-16T12:11:54;101210.81;;;18.92;62.64
65190;BME280;51777;53.570;9.984;2022-10-16T12:14:36;101227.09;;;18.66;62.54
65190;BME280;51777;53.570;9.984;2022-10-16T12:17:24;101230.97;;;18.19;63.46
65190;BME280;51777;53.570;9.984;2022-10-16T12:22:51;101238.66;;;18.20;63.71
65190;BME280;51777;53.570;9.984;2022-10-16T12:25:39;101238.66;;;18.20;63.76
65190;BME280;51777;53.570;9.984;2022-10-16T12:28:19;101238.81;;;18.34;62.97
65190;BME280;51777;53.570;9.984;2022-10-16T12:30:56;101244.69;;;18.36;62.67
65190;BME280;51777;53.570;9.984;2022-10-16T12:33:25;101247.88;;;18.53;61.97
65190;BME280;51777;53.570;9.984;2022-10-16T12:35:51;101249.38;;;18.76;61.03
65190;BME280;51777;53.570;9.984;2022-10-16T12:38:21;101246.88;;;18.68;61.07
65190;BME280;51777;53.570;9.984;2022-10-16T12:40:56;101245.25;;;18.89;60.43
65190;BME280;51777;53.570;9.984;2022-10-16T12:43:35;101267.22;;;18.88;58.68
65190;BME280;51777;53.570;9.984;2022-10-16T12:48:40;101260.84;;;18.75;58.44
65190;BME280;51777;53.570;9.984;2022-10-16T12:51:12;101269.59;;;19.04;57.82
65190;BME280;51777;53.570;9.984;2022-10-16T12:53:38;101271.28;;;19.12;57.99
65190;BME280;51777;53.570;9.984;2022-10-16T13:01:32;101289.25;;;18.93;56.94
65190;BME280;51777;53.570;9.984;2022-10-16T13:06:51;101283.06;;;19.01;57.48
65190;BME280;51777;53.570;9.984;2022-10-16T13:12:17;101288.38;;;19.07;56.07
65190;BME280;51777;53.570;9.984;2022-10-16T13:18:06;101297.09;;;18.93;57.33
65190;BME280;51777;53.570;9.984;2022-10-16T13:21:11;101297.63;;;19.03;56.91
65190;BME280;51777;53.570;9.984;2022-10-16T13:23:53;101307.22;;;18.96;57.49
65190;BME280;51777;53.570;9.984;2022-10-16T13:28:58;101324.34;;;18.77;58.26
65190;BME280;51777;53.570;9.984;2022-10-16T13:31:25;101318.03;;;18.57;58.75
65190;BME280;51777;53.570;9.984;2022-10-16T13:33:55;101323.91;;;18.59;58.62
65190;BME280;51777;53.570;9.984;2022-10-16T13:36:29;101329.84;;;18.83;58.56
65190;BME280;51777;53.570;9.984;2022-10-16T13:39:11;101323.25;;;18.87;58.53
65190;BME280;51777;53.570;9.984;2022-10-16T13:41:37;101319.97;;;18.99;58.92
65190;BME280;51777;53.570;9.984;2022-10-16T13:44:03;101341.03;;;18.91;59.26
65190;BME280;51777;53.570;9.984;2022-10-16T13:46:29;101338.13;;;19.01;58.99
65190;BME280;51777;53.570;9.984;2022-10-16T13:49:19;101337.47;;;18.77;60.14
65190;BME280;51777;53.570;9.984;2022-10-16T13:51:56;101337.50;;;18.84;59.93
65190;BME280;51777;53.570;9.984;2022-10-16T13:54:23;101339.66;;;18.95;59.19
65190;BME280;51777;53.570;9.984;2022-10-16T13:56:49;101344.31;;;19.15;58.26
65190;BME280;51777;53.570;9.984;2022-10-16T13:59:33;101344.56;;;18.84;57.43
65190;BME280;51777;53.570;9.984;2022-10-16T14:01:59;101357.94;;;18.89;57.50
65190;BME280;51777;53.570;9.984;2022-10-16T14:04:32;101354.63;;;18.80;57.91
65190;BME280;51777;53.570;9.984;2022-10-16T14:06:58;101365.75;;;18.67;57.99
65190;BME280;51777;53.570;9.984;2022-10-16T14:09:26;101367.38;;;18.68;57.81
65190;BME280;51777;53.570;9.984;2022-10-16T14:12:01;101363.13;;;18.67;58.09
65190;BME280;51777;53.570;9.984;2022-10-16T14:14:26;101375.19;;;18.83;56.98
65190;BME280;51777;53.570;9.984;2022-10-16T14:16:56;101377.81;;;18.83;57.28
65190;BME280;51777;53.570;9.984;2022-10-16T14:19:24;101379.09;;;18.72;57.43
65190;BME280;51777;53.570;9.984;2022-10-16T14:21:51;101380.84;;;18.51;57.59
65190;BME280;51777;53.570;9.984;2022-10-16T14:24:26;101383.09;;;18.39;58.23
65190;BME280;51777;53.570;9.984;2022-10-16T14:26:52;101380.19;;;18.34;58.34
65190;BME280;51777;53.570;9.984;2022-10-16T14:29:20;101388.69;;;18.36;58.46
65190;BME280;51777;53.570;9.984;2022-10-16T14:32:03;101398.00;;;18.38;58.46
65190;BME280;51777;53.570;9.984;2022-10-16T14:34:35;101404.47;;;18.42;58.75